createdAt,value
2018-03-01T00:00:46.623Z,100260.46
2018-03-01T00:01:49.121Z,100275.17
2018-03-01T00:02:51.958Z,100272.20
2018-03-01T00:03:54.453Z,100268.48
2018-03-01T00:04:56.942Z,100271.67
2018-03-01T00:05:59.428Z,100264.66
2018-03-01T00:07:01.947Z,100262.16
2018-03-01T00:08:04.442Z,100267.89
2018-03-01T00:09:06.938Z,100253.53
2018-03-01T00:10:09.434Z,100268.91
2018-03-01T00:11:11.929Z,100256.92
2018-03-01T00:12:14.441Z,100266.53
2018-03-01T00:13:16.933Z,100266.83
2018-03-01T00:14:19.421Z,100263.02
2018-03-01T00:15:21.903Z,100265.92
2018-03-01T00:16:24.402Z,100265.16
2018-03-01T00:17:26.943Z,100271.80
2018-03-01T00:18:29.414Z,100259.84
2018-03-01T00:19:31.902Z,100265.63
2018-03-01T00:20:34.386Z,100268.02
2018-03-01T00:21:36.877Z,100258.47
2018-03-01T00:22:39.380Z,100266.20
2018-03-01T00:23:41.871Z,100276.33
2018-03-01T00:24:44.347Z,100263.02
2018-03-01T00:25:46.841Z,100260.81
2018-03-01T00:26:49.337Z,100261.70
2018-03-01T00:27:51.839Z,100260.97
2018-03-01T00:28:54.323Z,100254.37
2018-03-01T00:29:56.818Z,100252.65
2018-03-01T00:30:59.307Z,100256.43
2018-03-01T00:32:01.787Z,100248.86
2018-03-01T00:33:04.290Z,100243.04
2018-03-01T00:34:06.777Z,100246.34
2018-03-01T00:35:09.251Z,100245.26
2018-03-01T00:36:11.723Z,100240.70
2018-03-01T00:37:14.203Z,100240.23
2018-03-01T00:38:16.720Z,100234.54
2018-03-01T00:39:19.205Z,100235.72
2018-03-01T00:40:21.697Z,100233.17
2018-03-01T00:41:24.190Z,100234.25
2018-03-01T00:42:26.686Z,100229.56
2018-03-01T00:43:29.193Z,100234.31
2018-03-01T00:44:31.677Z,100237.62
2018-03-01T00:45:34.151Z,100228.72
2018-03-01T00:46:36.636Z,100232.84
2018-03-01T00:47:39.189Z,100228.55
2018-03-01T00:48:41.688Z,100229.80
2018-03-01T00:49:44.159Z,100232.38
2018-03-01T00:50:46.666Z,100226.02
2018-03-01T00:51:49.147Z,100226.19
2018-03-01T00:52:51.642Z,100225.18
2018-03-01T00:53:54.157Z,100233.67
2018-03-01T00:54:56.698Z,100231.33
2018-03-01T00:55:59.189Z,100224.11
2018-03-01T00:57:01.667Z,100237.97
2018-03-01T00:58:04.152Z,100228.89
2018-03-01T00:59:06.644Z,100231.84
2018-03-01T01:00:09.118Z,100234.89
2018-03-01T01:01:11.612Z,100237.80
2018-03-01T01:02:14.089Z,100236.92
2018-03-01T01:03:16.565Z,100228.22
2018-03-01T01:04:19.073Z,100229.16
2018-03-01T01:05:21.571Z,100230.77
2018-03-01T01:06:24.057Z,100234.58
2018-03-01T01:07:26.535Z,100235.38
2018-03-01T01:08:29.011Z,100239.30
2018-03-01T01:09:31.511Z,100229.12
2018-03-01T01:10:33.991Z,100234.65
2018-03-01T01:11:36.463Z,100226.92
2018-03-01T01:12:38.940Z,100232.81
2018-03-01T01:13:41.433Z,100238.56
2018-03-01T01:14:43.938Z,100238.36
2018-03-01T01:15:46.415Z,100241.24
2018-03-01T01:16:48.899Z,100239.67
2018-03-01T01:17:51.391Z,100240.61
2018-03-01T01:18:53.896Z,100237.80
2018-03-01T01:19:56.385Z,100233.14
2018-03-01T01:20:58.886Z,100236.33
2018-03-01T01:22:01.374Z,100233.52
2018-03-01T01:23:03.859Z,100230.09
2018-03-01T01:24:06.336Z,100229.36
2018-03-01T01:25:08.846Z,100233.78
2018-03-01T01:26:11.343Z,100222.00
2018-03-01T01:27:13.831Z,100224.95
2018-03-01T01:28:16.309Z,100227.22
2018-03-01T01:29:18.785Z,100221.19
2018-03-01T01:30:21.279Z,100220.72
2018-03-01T01:31:23.754Z,100219.55
2018-03-01T01:32:26.245Z,100221.39
2018-03-01T01:33:28.719Z,100216.55
2018-03-01T01:34:31.193Z,100220.63
2018-03-01T01:35:33.698Z,100211.32
2018-03-01T01:36:36.175Z,100208.95
2018-03-01T01:37:38.669Z,100204.19
2018-03-01T01:38:41.157Z,100203.25
2018-03-01T01:39:43.640Z,100205.47
2018-03-01T01:40:46.151Z,100209.41
2018-03-01T01:41:48.628Z,100203.09
2018-03-01T01:42:51.130Z,100207.77
2018-03-01T01:43:53.633Z,100204.53
2018-03-01T01:44:56.126Z,100207.00
2018-03-01T01:45:58.629Z,100205.78
2018-03-01T01:47:01.115Z,100204.27
2018-03-01T01:48:03.601Z,100199.30
2018-03-01T01:49:06.089Z,100196.05
2018-03-01T01:50:08.568Z,100201.11
2018-03-01T01:51:11.069Z,100195.19
2018-03-01T01:52:13.548Z,100187.92
2018-03-01T01:53:16.018Z,100193.47
2018-03-01T01:54:18.501Z,100193.11
2018-03-01T01:55:20.981Z,100185.72
2018-03-01T01:56:23.455Z,100186.45
2018-03-01T01:57:25.923Z,100189.53
2018-03-01T01:58:28.392Z,100183.55
2018-03-01T01:59:30.875Z,100178.92
2018-03-01T02:00:33.360Z,100164.53
2018-03-01T02:01:35.843Z,100166.20
2018-03-01T02:02:38.342Z,100172.40
2018-03-01T02:03:40.832Z,100169.39
2018-03-01T02:04:43.324Z,100164.73
2018-03-01T02:05:45.818Z,100164.98
2018-03-01T02:06:48.293Z,100159.63
2018-03-01T02:07:50.768Z,100152.36
2018-03-01T02:08:53.295Z,100149.28
2018-03-01T02:09:55.794Z,100158.81
2018-03-01T02:10:58.275Z,100157.17
2018-03-01T02:12:00.764Z,100158.03
2018-03-01T02:13:03.254Z,100155.16
2018-03-01T02:14:05.739Z,100160.41
2018-03-01T02:15:08.230Z,100158.36
2018-03-01T02:16:10.704Z,100155.66
2018-03-01T02:17:13.184Z,100151.98
2018-03-01T02:18:15.664Z,100154.77
2018-03-01T02:19:18.152Z,100155.99
2018-03-01T02:20:20.632Z,100145.69
2018-03-01T02:21:23.117Z,100146.02
2018-03-01T02:22:25.608Z,100140.08
2018-03-01T02:23:28.103Z,100138.05
2018-03-01T02:24:30.576Z,100129.44
2018-03-01T02:25:33.047Z,100130.46
2018-03-01T02:26:35.535Z,100123.45
2018-03-01T02:27:38.172Z,100116.41
2018-03-01T02:28:40.518Z,100118.45
2018-03-01T02:29:42.991Z,100120.28
2018-03-01T02:30:45.514Z,100115.31
2018-03-01T02:31:48.014Z,100101.59
2018-03-01T02:32:50.505Z,100109.34
2018-03-01T02:33:53.008Z,100106.16
2018-03-01T02:34:55.534Z,100101.03
2018-03-01T02:35:58.022Z,100101.55
2018-03-01T02:37:00.523Z,100086.30
2018-03-01T02:38:03.008Z,100094.49
2018-03-01T02:39:05.499Z,100096.20
2018-03-01T02:40:07.975Z,100098.63
2018-03-01T02:41:10.456Z,100089.41
2018-03-01T02:42:12.925Z,100093.07
2018-03-01T02:43:15.403Z,100083.20
2018-03-01T02:44:17.898Z,100082.46
2018-03-01T02:45:20.386Z,100087.28
2018-03-01T02:46:22.893Z,100087.05
2018-03-01T02:47:25.393Z,100078.98
2018-03-01T02:48:27.912Z,100079.41
2018-03-01T02:49:30.396Z,100076.23
2018-03-01T02:50:32.871Z,100069.11
2018-03-01T02:51:35.367Z,100063.97
2018-03-01T02:52:37.861Z,100061.80
2018-03-01T02:53:40.346Z,100059.53
2018-03-01T02:54:42.842Z,100056.72
2018-03-01T02:55:45.334Z,100044.89
2018-03-01T02:56:47.820Z,100040.05
2018-03-01T02:57:50.294Z,100034.94
2018-03-01T02:58:52.790Z,100041.49
2018-03-01T02:59:55.272Z,100034.12
2018-03-01T03:00:57.796Z,100038.69
2018-03-01T03:02:00.275Z,100038.42
2018-03-01T03:03:02.759Z,100031.42
2018-03-01T03:04:05.245Z,100030.30
2018-03-01T03:05:07.731Z,100024.70
2018-03-01T03:06:10.235Z,100010.70
2018-03-01T03:07:12.725Z,100012.31
2018-03-01T03:08:15.213Z,100010.60
2018-03-01T03:09:17.735Z,100011.09
2018-03-01T03:10:20.216Z,100008.81
2018-03-01T03:11:22.721Z,100010.22
2018-03-01T03:12:25.217Z,100011.45
2018-03-01T03:13:27.709Z,100014.14
2018-03-01T03:14:30.189Z,100021.20
2018-03-01T03:15:32.685Z,100014.58
2018-03-01T03:16:35.161Z,100023.02
2018-03-01T03:17:37.654Z,100017.42
2018-03-01T03:18:40.133Z,100021.41
2018-03-01T03:19:42.629Z,100019.20
2018-03-01T03:20:45.106Z,100021.90
2018-03-01T03:21:47.594Z,100016.77
2018-03-01T03:22:50.076Z,100010.38
2018-03-01T03:23:52.569Z,100015.27
2018-03-01T03:24:55.043Z,100015.05
2018-03-01T03:25:57.533Z,100014.09
2018-03-01T03:27:00.023Z,100007.32
2018-03-01T03:28:02.514Z,100004.39
2018-03-01T03:29:04.994Z,100009.95
2018-03-01T03:30:07.491Z,100001.94
2018-03-01T03:31:09.974Z,100001.02
2018-03-01T03:32:12.459Z,100004.73
2018-03-01T03:33:14.931Z,99996.12
2018-03-01T03:34:17.412Z,100004.09
2018-03-01T03:35:19.889Z,99988.43
2018-03-01T03:36:22.373Z,99990.91
2018-03-01T03:37:24.843Z,99990.80
2018-03-01T03:38:27.325Z,99989.83
2018-03-01T03:39:29.802Z,99985.20
2018-03-01T03:40:32.275Z,99979.64
2018-03-01T03:41:34.743Z,99980.88
2018-03-01T03:42:37.240Z,99985.73
2018-03-01T03:43:39.729Z,99973.46
2018-03-01T03:44:42.209Z,99986.59
2018-03-01T03:45:44.689Z,99975.83
2018-03-01T03:46:47.194Z,99976.52
2018-03-01T03:47:49.663Z,99991.06
2018-03-01T03:48:52.137Z,99990.78
2018-03-01T03:49:54.649Z,99985.19
2018-03-01T03:50:57.129Z,99984.17
2018-03-01T03:51:59.609Z,99988.38
2018-03-01T03:53:02.093Z,99990.05
2018-03-01T03:54:04.563Z,99992.07
2018-03-01T03:55:07.060Z,99986.37
2018-03-01T03:56:09.546Z,99974.89
2018-03-01T03:57:12.018Z,99983.09
2018-03-01T03:58:14.491Z,99986.05
2018-03-01T03:59:16.990Z,99987.45
2018-03-01T04:00:19.483Z,99982.38
2018-03-01T04:01:21.962Z,99992.81
2018-03-01T04:02:24.439Z,99988.13
2018-03-01T04:03:26.917Z,99982.52
2018-03-01T04:04:29.405Z,99982.48
2018-03-01T04:05:31.876Z,99982.94
2018-03-01T04:06:34.378Z,99974.42
2018-03-01T04:07:36.839Z,99979.33
2018-03-01T04:08:39.329Z,99981.52
2018-03-01T04:09:41.801Z,99979.16
2018-03-01T04:10:44.273Z,99986.59
2018-03-01T04:11:46.752Z,99985.28
2018-03-01T04:12:49.237Z,99980.44
2018-03-01T04:13:51.706Z,99977.75
2018-03-01T04:14:54.191Z,99979.16
2018-03-01T04:15:56.673Z,99979.91
2018-03-01T04:16:59.145Z,99985.41
2018-03-01T04:18:01.621Z,99987.98
2018-03-01T04:19:04.095Z,99985.84
2018-03-01T04:20:06.564Z,99989.77
2018-03-01T04:21:09.049Z,99986.22
2018-03-01T04:22:11.542Z,99987.18
2018-03-01T04:23:14.003Z,99986.17
2018-03-01T04:24:16.495Z,99993.15
2018-03-01T04:25:18.968Z,99991.55
2018-03-01T04:26:21.460Z,99991.17
2018-03-01T04:27:23.953Z,99989.22
2018-03-01T04:28:26.441Z,99987.34
2018-03-01T04:29:28.931Z,99988.08
2018-03-01T04:30:31.425Z,99980.06
2018-03-01T04:31:33.917Z,99987.45
2018-03-01T04:32:36.414Z,99984.22
2018-03-01T04:33:38.901Z,99980.67
2018-03-01T04:34:41.385Z,99983.20
2018-03-01T04:35:43.884Z,99982.00
2018-03-01T04:36:46.362Z,99980.33
2018-03-01T04:37:48.851Z,99980.19
2018-03-01T04:38:51.331Z,99974.09
2018-03-01T04:39:53.804Z,99972.37
2018-03-01T04:40:56.297Z,99977.48
2018-03-01T04:41:58.786Z,99963.10
2018-03-01T04:43:01.264Z,99952.34
2018-03-01T04:44:03.758Z,99953.75
2018-03-01T04:45:06.252Z,99944.55
2018-03-01T04:46:08.742Z,99942.77
2018-03-01T04:47:11.256Z,99934.42
2018-03-01T04:48:13.724Z,99938.03
2018-03-01T04:49:16.214Z,99939.06
2018-03-01T04:50:18.684Z,99940.56
2018-03-01T04:51:21.159Z,99936.36
2018-03-01T04:52:23.648Z,99935.98
2018-03-01T04:53:26.134Z,99940.29
2018-03-01T04:54:28.600Z,99942.33
2018-03-01T04:55:31.073Z,99937.70
2018-03-01T04:56:33.543Z,99935.92
2018-03-01T04:57:36.016Z,99936.73
2018-03-01T04:58:38.490Z,99937.48
2018-03-01T04:59:40.985Z,99932.73
2018-03-01T05:00:43.492Z,99943.02
2018-03-01T05:01:45.977Z,99937.59
2018-03-01T05:02:48.444Z,99937.84
2018-03-01T05:03:50.928Z,99936.17
2018-03-01T05:04:53.433Z,99930.05
2018-03-01T05:05:55.903Z,99936.68
2018-03-01T05:06:58.380Z,99929.06
2018-03-01T05:08:00.870Z,99937.16
2018-03-01T05:09:03.353Z,99936.97
2018-03-01T05:10:05.841Z,99941.71
2018-03-01T05:11:08.328Z,99941.92
2018-03-01T05:12:10.825Z,99938.44
2018-03-01T05:13:13.319Z,99939.89
2018-03-01T05:14:15.787Z,99941.61
2018-03-01T05:15:18.277Z,99939.84
2018-03-01T05:16:20.750Z,99949.11
2018-03-01T05:17:23.257Z,99945.97
2018-03-01T05:18:25.731Z,99933.10
2018-03-01T05:19:28.217Z,99947.73
2018-03-01T05:20:30.701Z,99956.21
2018-03-01T05:21:33.171Z,99956.08
2018-03-01T05:22:35.660Z,99953.67
2018-03-01T05:23:38.155Z,99953.79
2018-03-01T05:24:40.641Z,99950.59
2018-03-01T05:25:43.126Z,99957.93
2018-03-01T05:26:45.617Z,99959.23
2018-03-01T05:27:48.101Z,99955.69
2018-03-01T05:28:50.628Z,99959.17
2018-03-01T05:29:53.109Z,99961.50
2018-03-01T05:30:55.590Z,99962.95
2018-03-01T05:31:58.086Z,99964.17
2018-03-01T05:33:00.582Z,99964.58
2018-03-01T05:34:03.066Z,99964.78
2018-03-01T05:35:05.540Z,99958.81
2018-03-01T05:36:08.034Z,99964.83
2018-03-01T05:37:10.516Z,99955.42
2018-03-01T05:38:12.988Z,99967.05
2018-03-01T05:39:15.463Z,99965.60
2018-03-01T05:40:17.945Z,99959.06
2018-03-01T05:41:20.433Z,99961.70
2018-03-01T05:42:22.911Z,99965.78
2018-03-01T05:43:25.400Z,99956.79
2018-03-01T05:44:27.894Z,99960.09
2018-03-01T05:45:30.370Z,99959.45
2018-03-01T05:46:32.854Z,99960.25
2018-03-01T05:47:35.358Z,99953.85
2018-03-01T05:48:37.845Z,99960.03
2018-03-01T05:49:40.335Z,99954.55
2018-03-01T05:50:42.802Z,99952.54
2018-03-01T05:51:45.285Z,99949.22
2018-03-01T05:52:47.761Z,99949.05
2018-03-01T05:53:50.263Z,99951.62
2018-03-01T05:54:52.748Z,99940.52
2018-03-01T05:55:55.246Z,99936.32
2018-03-01T05:56:57.708Z,99933.27
2018-03-01T05:58:00.194Z,99935.81
2018-03-01T05:59:02.679Z,99933.84
2018-03-01T06:00:05.162Z,99929.23
2018-03-01T06:01:07.635Z,99924.02
2018-03-01T06:02:10.100Z,99936.48
2018-03-01T06:03:12.576Z,99934.41
2018-03-01T06:04:15.051Z,99919.23
2018-03-01T06:05:17.534Z,99929.28
2018-03-01T06:06:20.031Z,99923.28
2018-03-01T06:07:22.546Z,99917.07
2018-03-01T06:08:25.041Z,99916.89
2018-03-01T06:09:27.529Z,99922.84
2018-03-01T06:10:30.065Z,99920.58
2018-03-01T06:11:32.542Z,99923.07
2018-03-01T06:12:35.033Z,99927.31
2018-03-01T06:13:37.512Z,99927.72
2018-03-01T06:14:40.015Z,99929.78
2018-03-01T06:15:42.509Z,99936.94
2018-03-01T06:16:44.998Z,99938.00
2018-03-01T06:17:47.489Z,99943.22
2018-03-01T06:18:49.969Z,99941.95
2018-03-01T06:19:52.454Z,99943.39
2018-03-01T06:20:54.954Z,99943.98
2018-03-01T06:21:57.527Z,99941.41
2018-03-01T06:23:00.143Z,99929.48
2018-03-01T06:24:02.621Z,99930.34
2018-03-01T06:25:05.083Z,99930.91
2018-03-01T06:26:07.565Z,99940.02
2018-03-01T06:27:10.048Z,99932.48
2018-03-01T06:28:12.511Z,99933.13
2018-03-01T06:29:14.982Z,99930.06
2018-03-01T06:30:17.454Z,99933.84
2018-03-01T06:31:19.919Z,99935.36
2018-03-01T06:32:22.410Z,99933.47
2018-03-01T06:33:24.893Z,99921.66
2018-03-01T06:34:27.376Z,99933.75
2018-03-01T06:35:29.855Z,99927.63
2018-03-01T06:36:32.322Z,99928.11
2018-03-01T06:37:34.783Z,99931.67
2018-03-01T06:38:37.250Z,99936.59
2018-03-01T06:39:39.730Z,99932.48
2018-03-01T06:40:42.200Z,99938.66
2018-03-01T06:41:44.667Z,99930.38
2018-03-01T06:42:47.149Z,99925.25
2018-03-01T06:43:49.654Z,99921.62
2018-03-01T06:44:52.136Z,99920.58
2018-03-01T06:45:54.615Z,99915.98
2018-03-01T06:46:57.088Z,99920.52
2018-03-01T06:47:59.552Z,99916.89
2018-03-01T06:49:02.040Z,99912.95
2018-03-01T06:50:04.552Z,99905.86
2018-03-01T06:51:07.017Z,99915.67
2018-03-01T06:52:09.483Z,99904.77
2018-03-01T06:53:11.969Z,99908.40
2018-03-01T06:54:14.440Z,99911.65
2018-03-01T06:55:16.996Z,99913.19
2018-03-01T06:56:19.489Z,99914.63
2018-03-01T06:57:22.316Z,99909.19
2018-03-01T06:58:24.861Z,99904.70
2018-03-01T06:59:27.370Z,99904.69
2018-03-01T07:00:29.895Z,99909.19
2018-03-01T07:01:32.378Z,99917.32
2018-03-01T07:02:34.861Z,99905.38
2018-03-01T07:03:37.349Z,99917.59
2018-03-01T07:04:39.890Z,99909.03
2018-03-01T07:05:42.377Z,99913.08
2018-03-01T07:06:44.866Z,99907.63
2018-03-01T07:07:47.331Z,99898.76
2018-03-01T07:08:49.815Z,99899.48
2018-03-01T07:09:52.310Z,99904.95
2018-03-01T07:10:54.799Z,99902.63
2018-03-01T07:11:57.296Z,99907.71
2018-03-01T07:12:59.774Z,99910.66
2018-03-01T07:14:02.243Z,99911.95
2018-03-01T07:15:04.718Z,99909.87
2018-03-01T07:16:07.201Z,99908.27
2018-03-01T07:17:09.672Z,99909.44
2018-03-01T07:18:12.158Z,99903.35
2018-03-01T07:19:14.637Z,99897.20
2018-03-01T07:20:17.124Z,99905.62
2018-03-01T07:21:19.603Z,99899.92
2018-03-01T07:22:22.111Z,99897.56
2018-03-01T07:23:24.607Z,99893.68
2018-03-01T07:24:27.090Z,99892.33
2018-03-01T07:25:29.564Z,99896.19
2018-03-01T07:26:32.164Z,99897.20
2018-03-01T07:27:34.637Z,99894.66
2018-03-01T07:28:37.156Z,99894.16
2018-03-01T07:29:39.627Z,99895.09
2018-03-01T07:30:42.104Z,99894.03
2018-03-01T07:31:44.567Z,99897.11
2018-03-01T07:32:47.046Z,99907.05
2018-03-01T07:33:49.519Z,99898.13
2018-03-01T07:34:51.994Z,99901.88
2018-03-01T07:35:54.459Z,99908.51
2018-03-01T07:36:56.932Z,99906.13
2018-03-01T07:37:59.429Z,99897.64
2018-03-01T07:39:01.930Z,99901.37
2018-03-01T07:40:04.414Z,99893.26
2018-03-01T07:41:06.880Z,99883.66
2018-03-01T07:42:09.379Z,99878.93
2018-03-01T07:43:11.861Z,99876.50
2018-03-01T07:44:14.337Z,99882.59
2018-03-01T07:45:16.804Z,99878.39
2018-03-01T07:46:19.286Z,99878.12
2018-03-01T07:47:21.770Z,99872.13
2018-03-01T07:48:24.247Z,99875.39
2018-03-01T07:49:26.719Z,99867.02
2018-03-01T07:50:29.201Z,99869.89
2018-03-01T07:51:31.686Z,99867.38
2018-03-01T07:52:34.173Z,99869.36
2018-03-01T07:53:36.641Z,99860.87
2018-03-01T07:54:39.112Z,99853.73
2018-03-01T07:55:41.593Z,99847.58
2018-03-01T07:56:44.059Z,99846.67
2018-03-01T07:57:46.560Z,99840.22
2018-03-01T07:58:49.041Z,99840.19
2018-03-01T07:59:51.522Z,99840.39
2018-03-01T08:00:54.046Z,99843.38
2018-03-01T08:01:56.525Z,99840.80
2018-03-01T08:02:58.995Z,99841.93
2018-03-01T08:04:01.480Z,99831.69
2018-03-01T08:05:03.972Z,99840.22
2018-03-01T08:06:06.441Z,99834.64
2018-03-01T08:07:08.899Z,99833.47
2018-03-01T08:08:11.367Z,99837.75
2018-03-01T08:09:13.859Z,99846.02
2018-03-01T08:10:16.351Z,99832.37
2018-03-01T08:11:18.908Z,99831.84
2018-03-01T08:12:21.422Z,99830.70
2018-03-01T08:13:23.895Z,99835.20
2018-03-01T08:14:26.391Z,99834.86
2018-03-01T08:15:28.861Z,99840.98
2018-03-01T08:16:31.327Z,99830.61
2018-03-01T08:17:33.813Z,99834.56
2018-03-01T08:18:36.302Z,99842.51
2018-03-01T08:19:38.785Z,99843.55
2018-03-01T08:20:41.251Z,99840.77
2018-03-01T08:21:43.748Z,99830.20
2018-03-01T08:22:46.223Z,99819.52
2018-03-01T08:23:48.766Z,99821.91
2018-03-01T08:24:51.250Z,99827.64
2018-03-01T08:25:53.723Z,99818.84
2018-03-01T08:26:56.200Z,99816.64
2018-03-01T08:27:58.659Z,99816.56
2018-03-01T08:29:01.137Z,99818.02
2018-03-01T08:30:04.184Z,99805.73
2018-03-01T08:31:06.646Z,99811.17
2018-03-01T08:32:09.124Z,99812.70
2018-03-01T08:33:11.606Z,99801.42
2018-03-01T08:34:14.092Z,99799.98
2018-03-01T08:35:16.559Z,99805.53
2018-03-01T08:36:19.024Z,99809.41
2018-03-01T08:37:21.523Z,99804.92
2018-03-01T08:38:23.997Z,99811.14
2018-03-01T08:39:26.481Z,99812.59
2018-03-01T08:40:28.967Z,99809.97
2018-03-01T08:41:31.451Z,99810.20
2018-03-01T08:42:33.938Z,99807.98
2018-03-01T08:43:36.413Z,99799.14
2018-03-01T08:44:38.886Z,99808.72
2018-03-01T08:45:41.408Z,99802.48
2018-03-01T08:46:43.893Z,99807.88
2018-03-01T08:47:46.379Z,99808.58
2018-03-01T08:48:48.855Z,99808.28
2018-03-01T08:49:51.343Z,99804.02
2018-03-01T08:50:53.824Z,99798.88
2018-03-01T08:51:56.304Z,99803.52
2018-03-01T08:52:58.785Z,99804.89
2018-03-01T08:54:01.262Z,99800.31
2018-03-01T08:55:03.765Z,99801.98
2018-03-01T08:56:06.271Z,99790.03
2018-03-01T08:57:08.773Z,99786.88
2018-03-01T08:58:11.250Z,99786.31
2018-03-01T08:59:13.736Z,99778.49
2018-03-01T09:00:16.212Z,99771.42
2018-03-01T09:01:18.700Z,99763.84
2018-03-01T09:02:21.199Z,99754.77
2018-03-01T09:03:23.692Z,99755.51
2018-03-01T09:04:26.164Z,99754.39
2018-03-01T09:05:28.627Z,99745.06
2018-03-01T09:06:31.140Z,99750.89
2018-03-01T09:07:33.620Z,99754.08
2018-03-01T09:08:36.094Z,99757.31
2018-03-01T09:09:38.558Z,99751.08
2018-03-01T09:10:41.037Z,99738.57
2018-03-01T09:11:43.512Z,99742.61
2018-03-01T09:12:45.995Z,99740.20
2018-03-01T09:13:48.456Z,99745.58
2018-03-01T09:14:51.004Z,99734.27
2018-03-01T09:15:53.529Z,99741.67
2018-03-01T09:16:56.027Z,99733.48
2018-03-01T09:17:58.511Z,99731.84
2018-03-01T09:19:01.020Z,99736.48
2018-03-01T09:20:03.503Z,99726.64
2018-03-01T09:21:05.989Z,99716.59
2018-03-01T09:22:08.474Z,99726.33
2018-03-01T09:23:11.009Z,99718.14
2018-03-01T09:24:13.501Z,99720.91
2018-03-01T09:25:15.972Z,99716.32
2018-03-01T09:26:18.440Z,99712.42
2018-03-01T09:27:20.933Z,99705.55
2018-03-01T09:28:23.422Z,99712.52
2018-03-01T09:29:25.887Z,99709.94
2018-03-01T09:30:28.384Z,99724.83
2018-03-01T09:31:30.851Z,99709.80
2018-03-01T09:32:33.340Z,99696.30
2018-03-01T09:33:35.807Z,99704.73
2018-03-01T09:34:38.295Z,99704.86
2018-03-01T09:35:40.785Z,99694.78
2018-03-01T09:36:43.260Z,99707.09
2018-03-01T09:37:45.741Z,99699.94
2018-03-01T09:38:48.250Z,99696.23
2018-03-01T09:39:50.722Z,99703.53
2018-03-01T09:40:53.195Z,99690.95
2018-03-01T09:41:55.687Z,99687.23
2018-03-01T09:42:58.152Z,99681.40
2018-03-01T09:44:00.622Z,99698.22
2018-03-01T09:45:03.134Z,99692.16
2018-03-01T09:46:05.635Z,99676.77
2018-03-01T09:47:08.100Z,99687.38
2018-03-01T09:48:10.564Z,99689.27
2018-03-01T09:49:13.692Z,99683.36
2018-03-01T09:50:16.174Z,99678.41
2018-03-01T09:51:18.643Z,99684.81
2018-03-01T09:52:21.122Z,99689.58
2018-03-01T09:53:23.610Z,99684.34
2018-03-01T09:54:26.131Z,99679.45
2018-03-01T09:55:28.595Z,99685.72
2018-03-01T09:56:31.077Z,99678.48
2018-03-01T09:57:33.548Z,99667.34
2018-03-01T09:58:36.029Z,99672.02
2018-03-01T09:59:38.491Z,99664.37
2018-03-01T10:00:40.974Z,99665.81
2018-03-01T10:01:43.455Z,99661.91
2018-03-01T10:02:45.944Z,99662.72
2018-03-01T10:03:48.415Z,99660.25
2018-03-01T10:04:50.874Z,99660.46
2018-03-01T10:05:53.353Z,99658.71
2018-03-01T10:06:55.835Z,99659.46
2018-03-01T10:07:58.292Z,99658.08
2018-03-01T10:09:00.778Z,99648.42
2018-03-01T10:10:03.245Z,99657.34
2018-03-01T10:11:05.718Z,99663.63
2018-03-01T10:12:08.227Z,99659.45
2018-03-01T10:13:10.691Z,99657.61
2018-03-01T10:14:13.159Z,99655.75
2018-03-01T10:15:15.638Z,99656.13
2018-03-01T10:16:18.115Z,99659.43
2018-03-01T10:17:20.603Z,99657.70
2018-03-01T10:18:23.096Z,99657.26
2018-03-01T10:19:25.583Z,99654.84
2018-03-01T10:20:28.062Z,99646.81
2018-03-01T10:21:30.569Z,99653.65
2018-03-01T10:22:33.056Z,99665.87
2018-03-01T10:23:35.542Z,99660.88
2018-03-01T10:24:38.030Z,99673.68
2018-03-01T10:25:40.510Z,99666.23
2018-03-01T10:26:42.983Z,99671.14
2018-03-01T10:27:45.465Z,99674.69
2018-03-01T10:28:47.924Z,99679.69
2018-03-01T10:29:50.403Z,99672.13
2018-03-01T10:30:52.925Z,99659.89
2018-03-01T10:31:55.372Z,99659.50
2018-03-01T10:32:57.853Z,99662.38
2018-03-01T10:34:00.337Z,99660.94
2018-03-01T10:35:02.819Z,99656.45
2018-03-01T10:36:05.306Z,99651.34
2018-03-01T10:37:07.805Z,99645.84
2018-03-01T10:38:10.274Z,99632.92
2018-03-01T10:39:12.741Z,99647.03
2018-03-01T10:40:15.203Z,99639.77
2018-03-01T10:41:17.671Z,99635.23
2018-03-01T10:42:20.161Z,99641.19
2018-03-01T10:43:22.650Z,99630.55
2018-03-01T10:44:25.141Z,99636.90
2018-03-01T10:45:27.622Z,99625.25
2018-03-01T10:46:30.091Z,99619.94
2018-03-01T10:47:32.565Z,99625.37
2018-03-01T10:48:35.050Z,99616.20
2018-03-01T10:49:37.533Z,99621.20
2018-03-01T10:50:40.017Z,99608.84
2018-03-01T10:51:42.502Z,99611.09
2018-03-01T10:52:44.961Z,99612.23
2018-03-01T10:53:47.426Z,99607.72
2018-03-01T10:54:50.183Z,99608.17
2018-03-01T10:55:52.639Z,99609.31
2018-03-01T10:56:55.102Z,99613.30
2018-03-01T10:57:57.571Z,99620.77
2018-03-01T10:59:00.027Z,99605.36
2018-03-01T11:00:02.505Z,99604.99
2018-03-01T11:01:10.577Z,99602.11
2018-03-01T11:02:13.093Z,99602.50
2018-03-01T11:03:15.569Z,99602.67
2018-03-01T11:04:18.052Z,99603.67
2018-03-01T11:05:20.546Z,99594.16
2018-03-01T11:06:23.063Z,99599.50
2018-03-01T11:07:25.588Z,99593.62
2018-03-01T11:08:28.206Z,99592.20
2018-03-01T11:09:30.672Z,99597.44
2018-03-01T11:10:33.143Z,99595.63
2018-03-01T11:11:35.617Z,99582.51
2018-03-01T11:12:38.103Z,99592.09
2018-03-01T11:13:40.576Z,99591.16
2018-03-01T11:14:43.040Z,99584.03
2018-03-01T11:15:45.503Z,99580.02
2018-03-01T11:16:47.986Z,99574.27
2018-03-01T11:17:50.475Z,99569.23
2018-03-01T11:18:52.940Z,99572.20
2018-03-01T11:19:55.420Z,99574.52
2018-03-01T11:20:57.923Z,99568.73
2018-03-01T11:22:00.413Z,99572.00
2018-03-01T11:23:02.895Z,99564.45
2018-03-01T11:24:05.385Z,99567.02
2018-03-01T11:25:07.868Z,99562.09
2018-03-01T11:26:10.341Z,99557.23
2018-03-01T11:27:12.823Z,99547.86
2018-03-01T11:28:15.292Z,99546.17
2018-03-01T11:29:17.773Z,99541.87
2018-03-01T11:30:20.258Z,99534.51
2018-03-01T11:31:22.727Z,99530.80
2018-03-01T11:32:25.200Z,99529.03
2018-03-01T11:33:27.686Z,99534.02
2018-03-01T11:34:30.165Z,99533.87
2018-03-01T11:35:32.658Z,99523.32
2018-03-01T11:36:35.180Z,99524.45
2018-03-01T11:37:37.666Z,99532.57
2018-03-01T11:38:40.154Z,99522.79
2018-03-01T11:39:42.668Z,99512.18
2018-03-01T11:40:45.158Z,99511.50
2018-03-01T11:41:47.689Z,99517.73
2018-03-01T11:42:50.314Z,99507.25
2018-03-01T11:43:52.777Z,99525.64
2018-03-01T11:44:55.245Z,99514.66
2018-03-01T11:45:57.730Z,99508.95
2018-03-01T11:47:00.232Z,99510.31
2018-03-01T11:48:02.737Z,99503.41
2018-03-01T11:49:05.204Z,99506.37
2018-03-01T11:50:07.672Z,99509.78
2018-03-01T11:51:10.154Z,99500.90
2018-03-01T11:52:12.620Z,99495.25
2018-03-01T11:53:15.093Z,99501.29
2018-03-01T11:54:17.618Z,99495.33
2018-03-01T11:55:20.183Z,99496.17
2018-03-01T11:56:22.653Z,99498.64
2018-03-01T11:57:25.137Z,99502.83
2018-03-01T11:58:27.614Z,99488.09
2018-03-01T11:59:30.090Z,99491.12
2018-03-01T12:00:32.574Z,99488.75
2018-03-01T12:01:35.058Z,99491.02
2018-03-01T12:02:37.541Z,99469.66
2018-03-01T12:03:40.021Z,99492.25
2018-03-01T12:04:42.507Z,99477.16
2018-03-01T12:05:44.987Z,99482.68
2018-03-01T12:06:47.482Z,99486.41
2018-03-01T12:07:49.976Z,99482.63